createdAt,value
2018-12-15T00:01:57.753Z,57.28
2018-12-15T00:04:25.560Z,57.28
2018-12-15T00:06:53.385Z,56.05
2018-12-15T00:09:21.006Z,56.18
2018-12-15T00:11:48.768Z,56.27
2018-12-15T00:14:16.498Z,56.57
2018-12-15T00:16:44.388Z,57.35
2018-12-15T00:19:11.976Z,57.44
2018-12-15T00:21:39.833Z,57.45
2018-12-15T00:24:07.425Z,57.75
2018-12-15T00:26:35.086Z,57.43
2018-12-15T00:29:02.843Z,56.64
2018-12-15T00:31:30.390Z,56.59
2018-12-15T00:33:57.983Z,56.64
2018-12-15T00:36:25.616Z,56.91
2018-12-15T00:38:53.281Z,56.00
2018-12-15T00:41:20.812Z,56.44
2018-12-15T00:43:48.273Z,57.29
2018-12-15T00:46:16.034Z,56.94
2018-12-15T00:48:43.377Z,55.97
2018-12-15T00:51:10.950Z,56.77
2018-12-15T00:53:38.667Z,56.99
2018-12-15T00:56:06.325Z,56.67
2018-12-15T00:58:34.007Z,56.39
2018-12-15T01:01:01.655Z,57.17
2018-12-15T01:03:29.245Z,56.92
2018-12-15T01:05:56.779Z,57.28
2018-12-15T01:08:24.425Z,56.31
2018-12-15T01:10:52.095Z,56.71
2018-12-15T01:13:19.933Z,57.07
2018-12-15T01:15:47.755Z,56.89
2018-12-15T01:18:15.402Z,57.02
2018-12-15T01:20:42.990Z,57.36
2018-12-15T01:23:10.818Z,57.36
2018-12-15T01:25:38.263Z,57.43
2018-12-15T01:28:05.885Z,57.26
2018-12-15T01:30:33.383Z,57.48
2018-12-15T01:33:00.928Z,56.22
2018-12-15T01:35:28.531Z,56.28
2018-12-15T01:37:55.880Z,56.46
2018-12-15T01:40:23.456Z,56.47
2018-12-15T01:42:51.021Z,56.91
2018-12-15T01:45:18.472Z,57.07
2018-12-15T01:47:46.170Z,56.94
2018-12-15T01:50:14.228Z,56.71
2018-12-15T01:52:41.676Z,56.68
2018-12-15T01:55:09.337Z,57.17
2018-12-15T01:57:37.118Z,56.79
2018-12-15T02:00:06.532Z,56.39
2018-12-15T02:02:34.646Z,56.37
2018-12-15T02:05:02.532Z,57.15
2018-12-15T02:07:30.097Z,56.60
2018-12-15T02:09:57.744Z,57.10
2018-12-15T02:12:25.120Z,56.88
2018-12-15T02:14:52.787Z,57.21
2018-12-15T02:17:21.296Z,56.98
2018-12-15T02:19:49.108Z,57.11
2018-12-15T02:22:16.711Z,57.16
2018-12-15T02:24:44.403Z,57.24
2018-12-15T02:27:11.958Z,57.33
2018-12-15T02:29:39.546Z,57.29
2018-12-15T02:32:07.149Z,57.47
2018-12-15T02:34:34.780Z,57.39
2018-12-15T02:37:02.476Z,57.48
2018-12-15T02:39:30.194Z,57.67
2018-12-15T02:41:57.968Z,57.89
2018-12-15T02:44:25.561Z,57.24
2018-12-15T02:46:52.985Z,57.53
2018-12-15T02:49:20.590Z,57.28
2018-12-15T02:51:48.362Z,57.60
2018-12-15T02:54:15.780Z,57.87
2018-12-15T02:56:43.449Z,58.04
2018-12-15T02:59:10.979Z,57.42
2018-12-15T03:01:38.499Z,56.88
2018-12-15T03:04:06.212Z,56.90
2018-12-15T03:06:33.748Z,57.47
2018-12-15T03:09:01.432Z,57.63
2018-12-15T03:11:29.398Z,57.67
2018-12-15T03:13:56.956Z,56.85
2018-12-15T03:16:24.598Z,57.17
2018-12-15T03:18:52.293Z,57.17
2018-12-15T03:21:19.968Z,57.11
2018-12-15T03:23:47.581Z,56.20
2018-12-15T03:26:15.360Z,56.14
2018-12-15T03:28:42.935Z,56.24
2018-12-15T03:31:10.637Z,56.29
2018-12-15T03:33:38.424Z,56.74
2018-12-15T03:36:05.975Z,56.24
2018-12-15T03:38:33.613Z,55.81
2018-12-15T03:41:01.142Z,56.32
2018-12-15T03:43:28.557Z,56.09
2018-12-15T03:45:55.985Z,55.14
2018-12-15T03:48:23.586Z,55.72
2018-12-15T03:50:51.020Z,55.75
2018-12-15T03:53:18.562Z,56.30
2018-12-15T03:55:46.137Z,56.68
2018-12-15T03:58:13.777Z,56.60
2018-12-15T04:00:41.494Z,56.27
2018-12-15T04:03:09.193Z,56.55
2018-12-15T04:05:36.666Z,56.54
2018-12-15T04:08:03.980Z,56.25
2018-12-15T04:10:31.768Z,56.02
2018-12-15T04:12:59.299Z,56.43
2018-12-15T04:15:26.633Z,56.67
2018-12-15T04:17:54.456Z,57.16
2018-12-15T04:20:22.185Z,56.86
2018-12-15T04:22:49.567Z,57.39
2018-12-15T04:25:17.328Z,56.79
2018-12-15T04:27:44.992Z,56.77
2018-12-15T04:30:12.677Z,56.15
2018-12-15T04:32:45.059Z,56.16
2018-12-15T04:35:09.808Z,55.59
2018-12-15T04:37:37.404Z,55.59
2018-12-15T04:40:06.837Z,55.86
2018-12-15T04:42:34.487Z,56.37
2018-12-15T04:45:02.048Z,56.62
2018-12-15T04:47:29.897Z,56.75
2018-12-15T04:49:57.478Z,57.17
2018-12-15T04:52:25.014Z,56.50
2018-12-15T04:54:52.730Z,56.88
2018-12-15T04:57:20.427Z,57.09
2018-12-15T04:59:48.215Z,57.13
2018-12-15T05:02:16.065Z,56.87
2018-12-15T05:04:43.439Z,56.59
2018-12-15T05:07:10.959Z,56.63
2018-12-15T05:09:38.751Z,56.89
2018-12-15T05:12:06.392Z,56.68
2018-12-15T05:14:33.970Z,56.02
2018-12-15T05:17:01.811Z,56.63
2018-12-15T05:19:29.471Z,56.32
2018-12-15T05:21:57.259Z,56.51
2018-12-15T05:24:24.923Z,56.13
2018-12-15T05:26:52.531Z,56.99
2018-12-15T05:29:20.191Z,56.49
2018-12-15T05:31:47.761Z,56.84
2018-12-15T05:34:15.426Z,56.58
2018-12-15T05:36:42.988Z,56.69
2018-12-15T05:39:10.662Z,56.54
2018-12-15T05:41:38.249Z,56.00
2018-12-15T05:44:05.911Z,56.47
2018-12-15T05:46:33.263Z,57.12
2018-12-15T05:49:01.031Z,56.76
2018-12-15T05:51:28.451Z,56.60
2018-12-15T05:53:56.101Z,56.38
2018-12-15T05:56:23.738Z,55.86
2018-12-15T05:58:51.277Z,55.75
2018-12-15T06:01:18.985Z,56.15
2018-12-15T06:03:46.499Z,56.36
2018-12-15T06:06:14.312Z,56.73
2018-12-15T06:08:42.000Z,56.74
2018-12-15T06:11:09.599Z,57.33
2018-12-15T06:13:37.355Z,56.73
2018-12-15T06:16:05.135Z,57.09
2018-12-15T06:18:32.619Z,57.21
2018-12-15T06:20:59.944Z,57.16
2018-12-15T06:23:27.560Z,57.42
2018-12-15T06:25:55.322Z,57.50
2018-12-15T06:28:22.963Z,57.34
2018-12-15T06:30:50.529Z,57.70
2018-12-15T06:33:17.851Z,58.53
2018-12-15T06:35:45.175Z,58.50
2018-12-15T06:38:12.611Z,57.58
2018-12-15T06:40:40.151Z,57.96
2018-12-15T06:43:07.706Z,57.50
2018-12-15T06:45:35.082Z,57.85
2018-12-15T06:48:02.919Z,58.04
2018-12-15T06:50:30.292Z,57.86
2018-12-15T06:52:57.973Z,57.52
2018-12-15T06:55:25.527Z,57.59
2018-12-15T06:57:53.195Z,57.71
2018-12-15T07:00:20.813Z,57.65
2018-12-15T07:02:48.473Z,57.58
2018-12-15T07:05:16.143Z,57.42
2018-12-15T07:07:43.831Z,57.50
2018-12-15T07:10:11.501Z,57.91
2018-12-15T07:12:39.254Z,58.13
2018-12-15T07:15:07.408Z,57.11
2018-12-15T07:17:35.033Z,57.46
2018-12-15T07:20:02.751Z,57.06
2018-12-15T07:22:30.471Z,56.97
2018-12-15T07:24:58.064Z,57.06
2018-12-15T07:27:25.733Z,56.04
2018-12-15T07:29:56.385Z,56.36
2018-12-15T07:32:24.081Z,56.85
2018-12-15T07:34:51.691Z,56.70
2018-12-15T07:37:19.368Z,57.26
2018-12-15T07:39:47.003Z,57.33
2018-12-15T07:42:14.615Z,56.87
2018-12-15T07:44:42.307Z,56.95
2018-12-15T07:47:10.086Z,57.38
2018-12-15T07:49:37.783Z,57.27
2018-12-15T07:52:05.345Z,57.55
2018-12-15T07:54:33.071Z,57.04
2018-12-15T07:57:00.392Z,56.99
2018-12-15T07:59:28.021Z,56.78
2018-12-15T08:01:55.405Z,56.98
2018-12-15T08:04:23.106Z,56.70
2018-12-15T08:06:50.676Z,56.18
2018-12-15T08:09:18.250Z,56.08
2018-12-15T08:11:51.332Z,56.56
2018-12-15T08:14:19.448Z,56.28
2018-12-15T08:16:47.180Z,55.87
2018-12-15T08:19:14.761Z,55.54
2018-12-15T08:21:42.596Z,56.15
2018-12-15T08:24:10.208Z,56.19
2018-12-15T08:26:38.105Z,56.45
2018-12-15T08:29:05.823Z,56.03
2018-12-15T08:31:36.252Z,56.50
2018-12-15T08:34:04.282Z,55.79
2018-12-15T08:36:31.965Z,55.88
2018-12-15T08:38:59.648Z,56.45
2018-12-15T08:41:27.196Z,56.09
2018-12-15T08:43:54.908Z,56.37
2018-12-15T08:46:22.488Z,56.39
2018-12-15T08:48:49.860Z,55.82
2018-12-15T08:51:17.673Z,54.85
2018-12-15T08:53:45.368Z,54.77
2018-12-15T08:56:12.916Z,55.40
2018-12-15T08:58:40.720Z,54.75
2018-12-15T09:01:08.372Z,54.99
2018-12-15T09:03:36.109Z,54.62
2018-12-15T09:06:03.876Z,54.59
2018-12-15T09:08:31.506Z,54.82
2018-12-15T09:10:59.137Z,54.68
2018-12-15T09:13:27.159Z,54.86
2018-12-15T09:15:54.854Z,55.21
2018-12-15T09:18:22.512Z,54.44
2018-12-15T09:20:50.184Z,54.14
2018-12-15T09:23:17.667Z,54.60
2018-12-15T09:25:45.307Z,54.74
2018-12-15T09:28:13.012Z,55.11
2018-12-15T09:30:40.351Z,54.42
2018-12-15T09:33:07.968Z,53.87
2018-12-15T09:35:35.330Z,53.90
2018-12-15T09:38:03.128Z,54.26
2018-12-15T09:40:30.833Z,55.00
2018-12-15T09:42:58.467Z,54.42
2018-12-15T09:45:26.181Z,54.37
2018-12-15T09:47:53.754Z,54.36
2018-12-15T09:50:21.469Z,54.24
2018-12-15T09:52:49.043Z,54.01
2018-12-15T09:55:16.621Z,54.21
2018-12-15T09:57:44.211Z,53.80
2018-12-15T10:00:11.939Z,53.81
2018-12-15T10:02:39.421Z,53.89
2018-12-15T10:05:07.293Z,53.64
2018-12-15T10:07:34.929Z,53.53
2018-12-15T10:10:02.832Z,53.60
2018-12-15T10:12:30.221Z,53.76
2018-12-15T10:14:57.895Z,53.79
2018-12-15T10:17:25.339Z,53.22
2018-12-15T10:19:53.126Z,53.27
2018-12-15T10:22:20.897Z,52.93
2018-12-15T10:24:48.668Z,52.64
2018-12-15T10:27:16.369Z,53.03
2018-12-15T10:30:49.245Z,53.06
2018-12-15T10:33:16.715Z,53.51
2018-12-15T10:35:44.051Z,52.58
2018-12-15T10:38:11.465Z,53.26
2018-12-15T10:40:39.138Z,52.18
2018-12-15T10:43:06.875Z,51.99
2018-12-15T10:45:34.202Z,52.42
2018-12-15T10:48:01.904Z,52.04
2018-12-15T10:50:30.364Z,51.93
2018-12-15T10:52:58.181Z,52.68
2018-12-15T10:55:25.759Z,51.92
2018-12-15T10:57:53.465Z,52.14
2018-12-15T11:00:29.133Z,52.40
2018-12-15T11:02:56.808Z,53.03
2018-12-15T11:05:24.502Z,52.88
2018-12-15T11:07:52.410Z,52.60
2018-12-15T11:10:20.106Z,52.30
2018-12-15T11:12:47.672Z,51.96
2018-12-15T11:15:15.204Z,52.56
2018-12-15T11:17:42.747Z,52.23
2018-12-15T11:20:10.620Z,51.98
2018-12-15T11:22:38.209Z,52.60
2018-12-15T11:25:06.752Z,52.80
2018-12-15T11:27:34.318Z,51.99
2018-12-15T11:30:01.973Z,52.35
2018-12-15T11:32:30.037Z,52.77
2018-12-15T11:34:57.715Z,53.28
2018-12-15T11:37:25.323Z,52.22
2018-12-15T11:39:52.929Z,52.05
2018-12-15T11:42:21.460Z,51.55
2018-12-15T11:44:49.143Z,51.49
2018-12-15T11:47:16.791Z,51.90
2018-12-15T11:52:18.798Z,51.54
2018-12-15T11:54:46.584Z,51.82
2018-12-15T11:57:14.203Z,52.10
2018-12-15T11:59:41.992Z,52.47
2018-12-15T12:02:09.422Z,52.33
2018-12-15T12:04:37.038Z,51.76
2018-12-15T12:07:04.446Z,52.28
2018-12-15T12:09:32.002Z,52.49
2018-12-15T12:11:59.566Z,52.34
2018-12-15T12:14:27.143Z,51.82
2018-12-15T12:16:54.920Z,52.15
2018-12-15T12:19:22.492Z,52.30
2018-12-15T12:21:50.182Z,52.44
2018-12-15T12:24:17.748Z,52.87
2018-12-15T12:26:45.356Z,52.83
2018-12-15T12:29:13.002Z,52.70
2018-12-15T12:31:40.783Z,52.78
2018-12-15T12:34:08.455Z,51.94
2018-12-15T12:36:36.292Z,52.26
2018-12-15T12:39:05.949Z,52.36
2018-12-15T12:41:33.682Z,52.04
2018-12-15T12:44:01.342Z,52.31
2018-12-15T12:46:29.128Z,52.07
2018-12-15T12:48:56.578Z,51.93
2018-12-15T12:51:24.332Z,51.97
2018-12-15T12:53:51.744Z,52.24
2018-12-15T12:56:19.520Z,52.13
2018-12-15T12:58:47.098Z,52.20
2018-12-15T13:01:14.660Z,53.10
2018-12-15T13:03:42.212Z,52.60
2018-12-15T13:06:09.840Z,52.17
2018-12-15T13:08:37.368Z,52.68
2018-12-15T13:11:04.988Z,52.83
2018-12-15T13:13:33.869Z,52.53
2018-12-15T13:16:01.687Z,52.16
2018-12-15T13:18:29.388Z,52.59
2018-12-15T13:20:57.036Z,52.69
2018-12-15T13:23:24.738Z,52.17
2018-12-15T13:25:52.525Z,52.51
2018-12-15T13:28:20.924Z,53.23
2018-12-15T13:30:48.290Z,53.39
2018-12-15T13:33:27.372Z,53.86
2018-12-15T13:35:54.758Z,53.21
2018-12-15T13:38:22.418Z,53.30
2018-12-15T13:40:49.840Z,53.64
2018-12-15T13:43:17.492Z,53.70
2018-12-15T13:45:45.164Z,53.83
2018-12-15T13:48:12.757Z,54.03
2018-12-15T13:50:40.141Z,53.46
2018-12-15T13:53:07.756Z,52.97
2018-12-15T13:55:35.393Z,53.16
2018-12-15T13:58:02.960Z,52.88
2018-12-15T14:00:30.652Z,53.11
2018-12-15T14:02:58.406Z,53.21
2018-12-15T14:05:26.244Z,53.59
2018-12-15T14:07:53.906Z,53.14
2018-12-15T14:10:21.530Z,53.48
2018-12-15T14:12:49.342Z,53.31
2018-12-15T14:15:17.185Z,53.67
2018-12-15T14:17:44.556Z,53.75
2018-12-15T14:20:16.714Z,54.07
2018-12-15T14:22:41.640Z,53.40
2018-12-15T14:25:09.514Z,53.28
2018-12-15T14:27:37.080Z,53.45
2018-12-15T14:30:05.626Z,53.72
2018-12-15T14:32:33.293Z,54.05
2018-12-15T14:35:00.831Z,54.66
2018-12-15T14:37:28.448Z,54.53
2018-12-15T14:39:56.186Z,54.22
2018-12-15T14:42:23.760Z,53.81
2018-12-15T14:44:51.552Z,53.75
2018-12-15T14:47:19.237Z,54.09
2018-12-15T14:49:46.924Z,53.95
2018-12-15T14:52:14.486Z,54.17
2018-12-15T14:54:42.098Z,54.38
2018-12-15T14:57:20.732Z,54.35
2018-12-15T14:59:48.451Z,54.30
2018-12-15T15:02:16.092Z,54.37
2018-12-15T15:04:43.456Z,54.23
2018-12-15T15:07:10.940Z,54.39
2018-12-15T15:09:38.304Z,54.73
2018-12-15T15:12:05.864Z,55.46
2018-12-15T15:14:33.779Z,54.11
2018-12-15T15:17:01.327Z,53.97
2018-12-15T15:19:28.998Z,53.26
2018-12-15T15:21:56.846Z,52.91
2018-12-15T15:24:24.600Z,53.19
2018-12-15T15:26:52.186Z,53.20
2018-12-15T15:29:19.752Z,52.92
2018-12-15T15:31:47.295Z,53.50
2018-12-15T15:34:15.030Z,53.98
2018-12-15T15:36:42.704Z,54.61
2018-12-15T15:39:10.431Z,53.71
2018-12-15T15:41:38.026Z,53.63
2018-12-15T15:44:05.685Z,53.97
2018-12-15T15:46:33.004Z,53.99
2018-12-15T15:49:00.572Z,54.64
2018-12-15T15:51:28.046Z,54.15
2018-12-15T15:53:55.668Z,54.10
2018-12-15T15:56:24.039Z,54.49
2018-12-15T15:58:51.639Z,54.63
2018-12-15T16:01:19.339Z,54.56
2018-12-15T16:03:46.932Z,54.43
2018-12-15T16:06:14.603Z,54.33
2018-12-15T16:08:42.265Z,53.90
2018-12-15T16:11:09.815Z,53.86
2018-12-15T16:13:37.623Z,54.80
2018-12-15T16:16:43.777Z,54.85
2018-12-15T16:19:11.621Z,54.55
2018-12-15T16:21:39.363Z,55.06
2018-12-15T16:24:07.051Z,54.67
2018-12-15T16:26:34.651Z,53.96
2018-12-15T16:29:02.253Z,53.58
2018-12-15T16:31:30.133Z,53.81
2018-12-15T16:33:57.823Z,53.97
2018-12-15T16:36:25.447Z,53.63
2018-12-15T16:38:53.049Z,54.27
2018-12-15T16:41:20.752Z,54.11
2018-12-15T16:43:48.321Z,54.58
2018-12-15T16:46:15.867Z,54.06
2018-12-15T16:48:43.263Z,54.35
2018-12-15T16:51:10.909Z,54.40
2018-12-15T16:53:38.505Z,54.55
2018-12-15T16:56:06.109Z,53.47
2018-12-15T16:58:33.790Z,54.85
2018-12-15T17:01:01.380Z,54.82
2018-12-15T17:03:30.607Z,54.48
2018-12-15T17:05:58.174Z,54.24
2018-12-15T17:08:25.818Z,54.28
2018-12-15T17:10:53.618Z,54.71
2018-12-15T17:13:21.228Z,54.48
2018-12-15T17:15:48.616Z,54.65
2018-12-15T17:18:16.267Z,53.93
2018-12-15T17:20:44.100Z,54.05
2018-12-15T17:23:11.856Z,53.98
2018-12-15T17:25:39.356Z,53.95
2018-12-15T17:28:06.952Z,54.33
2018-12-15T17:30:34.432Z,54.78
2018-12-15T17:33:02.219Z,55.03
2018-12-15T17:35:29.827Z,54.84
2018-12-15T17:37:57.473Z,53.84
2018-12-15T17:40:25.213Z,54.75
2018-12-15T17:42:53.084Z,54.41
2018-12-15T17:45:20.890Z,54.31
2018-12-15T17:47:48.620Z,54.35
2018-12-15T17:50:16.316Z,54.56
2018-12-15T17:52:43.890Z,54.66
2018-12-15T17:55:11.736Z,54.36
2018-12-15T17:57:39.287Z,54.11
2018-12-15T18:00:09.658Z,54.50
2018-12-15T18:02:37.456Z,55.27
2018-12-15T18:05:05.646Z,55.16
2018-12-15T18:07:33.364Z,55.56
2018-12-15T18:10:01.104Z,55.43
2018-12-15T18:12:28.524Z,54.74
2018-12-15T18:14:56.085Z,54.82
2018-12-15T18:17:23.581Z,55.03
2018-12-15T18:19:51.159Z,54.40
2018-12-15T18:22:18.710Z,54.37
2018-12-15T18:24:46.319Z,54.87
2018-12-15T18:27:14.031Z,55.48
2018-12-15T18:29:41.775Z,54.81
2018-12-15T18:32:09.367Z,54.80
2018-12-15T18:34:37.036Z,55.29
2018-12-15T18:37:04.668Z,55.66
2018-12-15T18:39:32.280Z,55.44
2018-12-15T18:41:59.856Z,55.39
2018-12-15T18:44:27.337Z,55.41
2018-12-15T18:46:54.992Z,55.92
2018-12-15T18:49:22.676Z,55.84
2018-12-15T18:51:50.227Z,56.02
2018-12-15T18:54:17.616Z,55.92
2018-12-15T18:56:45.398Z,56.21
2018-12-15T18:59:12.807Z,56.23
2018-12-15T19:01:40.460Z,56.31
2018-12-15T19:04:08.052Z,56.68
2018-12-15T19:06:35.714Z,56.56
2018-12-15T19:09:06.346Z,56.10
2018-12-15T19:11:33.897Z,56.11
2018-12-15T19:14:01.460Z,55.96
2018-12-15T19:16:29.368Z,56.66
2018-12-15T19:18:57.053Z,56.33
2018-12-15T19:21:24.757Z,56.48
2018-12-15T19:23:52.330Z,56.62
2018-12-15T19:26:20.076Z,56.68
2018-12-15T19:28:47.694Z,57.24
2018-12-15T19:31:15.189Z,56.80
2018-12-15T19:33:42.849Z,56.62
2018-12-15T19:36:10.531Z,56.95
2018-12-15T19:38:38.353Z,57.11
2018-12-15T19:41:05.765Z,57.33
2018-12-15T19:43:33.439Z,57.37
2018-12-15T19:46:00.853Z,57.82
2018-12-15T19:48:28.432Z,57.03
2018-12-15T19:50:55.757Z,57.36
2018-12-15T19:53:23.358Z,56.61
2018-12-15T19:55:50.936Z,57.09
2018-12-15T19:58:18.520Z,56.69
2018-12-15T20:00:46.087Z,57.14
2018-12-15T20:03:13.682Z,56.73
2018-12-15T20:05:41.538Z,56.43
2018-12-15T20:08:09.156Z,56.48
2018-12-15T20:10:36.843Z,56.58
2018-12-15T20:13:04.682Z,57.67
2018-12-15T20:15:32.525Z,56.96
2018-12-15T20:18:00.247Z,56.82
2018-12-15T20:20:27.801Z,56.69
2018-12-15T20:22:55.273Z,56.95
2018-12-15T20:25:22.816Z,56.96
2018-12-15T20:27:50.202Z,56.72
2018-12-15T20:30:17.797Z,56.78
2018-12-15T20:32:45.514Z,56.96
2018-12-15T20:35:13.291Z,57.52
2018-12-15T20:37:40.901Z,57.09
2018-12-15T20:40:09.394Z,56.68
2018-12-15T20:42:37.113Z,56.42
2018-12-15T20:45:05.668Z,56.86
2018-12-15T20:47:33.433Z,56.96
2018-12-15T20:50:00.979Z,57.00
2018-12-15T20:52:28.678Z,57.32
2018-12-15T20:54:56.257Z,57.19
2018-12-15T20:57:23.977Z,57.15
2018-12-15T20:59:51.655Z,57.49
2018-12-15T21:02:19.383Z,57.43
2018-12-15T21:04:47.031Z,57.58
2018-12-15T21:07:14.705Z,58.04
2018-12-15T21:09:42.281Z,57.86
2018-12-15T21:12:09.979Z,58.65
2018-12-15T21:14:37.402Z,58.90
2018-12-15T21:17:04.967Z,58.36
2018-12-15T21:19:32.552Z,58.46
2018-12-15T21:22:00.162Z,58.39
2018-12-15T21:24:27.855Z,58.86
2018-12-15T21:26:55.435Z,58.75
2018-12-15T21:29:23.157Z,58.76
2018-12-15T21:31:56.486Z,58.96
2018-12-15T21:34:20.485Z,59.42
2018-12-15T21:36:48.239Z,58.94
2018-12-15T21:39:16.035Z,59.10
2018-12-15T21:41:43.647Z,59.00
2018-12-15T21:44:11.450Z,59.00
2018-12-15T21:46:39.460Z,59.59
2018-12-15T21:49:06.991Z,60.15
2018-12-15T21:51:34.480Z,60.28
2018-12-15T21:54:02.055Z,60.21
2018-12-15T21:56:29.453Z,59.98
2018-12-15T21:58:57.129Z,60.34
2018-12-15T22:01:24.721Z,60.77
2018-12-15T22:03:52.405Z,61.14
2018-12-15T22:06:20.009Z,61.33
2018-12-15T22:08:47.699Z,61.02
2018-12-15T22:11:15.448Z,61.46
2018-12-15T22:13:43.230Z,61.89
2018-12-15T22:16:10.860Z,62.26
2018-12-15T22:18:38.553Z,61.88
2018-12-15T22:21:06.221Z,62.67
2018-12-15T22:23:33.675Z,62.57
2018-12-15T22:26:01.339Z,62.66
2018-12-15T22:28:28.984Z,62.61
2018-12-15T22:30:56.727Z,62.89
2018-12-15T22:33:24.085Z,62.93
2018-12-15T22:35:51.625Z,62.76
2018-12-15T22:38:18.969Z,62.40
2018-12-15T22:40:46.669Z,62.52
2018-12-15T22:43:14.343Z,63.31
2018-12-15T22:45:41.981Z,63.35
2018-12-15T22:48:09.627Z,63.56
2018-12-15T22:50:37.132Z,62.94
2018-12-15T22:53:04.713Z,63.39
2018-12-15T22:55:32.463Z,63.48
2018-12-15T22:58:00.023Z,62.45
2018-12-15T23:00:29.658Z,62.49
2018-12-15T23:02:57.249Z,62.65
2018-12-15T23:05:25.001Z,62.83
2018-12-15T23:07:52.823Z,62.55
2018-12-15T23:10:20.393Z,62.35
2018-12-15T23:12:47.997Z,63.01
2018-12-15T23:15:15.557Z,62.51
2018-12-15T23:17:43.311Z,61.98
2018-12-15T23:20:11.183Z,61.84
2018-12-15T23:22:38.955Z,61.50
2018-12-15T23:25:06.642Z,61.97
2018-12-15T23:27:34.364Z,61.53
2018-12-15T23:30:02.152Z,61.46
2018-12-15T23:32:30.172Z,61.20
2018-12-15T23:34:57.764Z,61.92
2018-12-15T23:37:25.449Z,62.06
2018-12-15T23:39:52.994Z,61.52
2018-12-15T23:42:20.825Z,61.41
2018-12-15T23:44:48.395Z,61.82
2018-12-15T23:47:16.055Z,60.93
2018-12-15T23:49:43.829Z,61.28
2018-12-15T23:52:11.663Z,60.90
2018-12-15T23:54:39.435Z,60.58
2018-12-15T23:57:07.047Z,60.77
2018-12-15T23:59:34.829Z,61.20
